Time,TemperatureF,DewpointF,PressureIn,WindDirection,WindDirectionDegrees,WindSpeedMPH,WindSpeedGustMPH,Humidity,HourlyPrecipIn,Conditions,Clouds,dailyrainin,SolarRadiationWatts/m^2,SoftwareType,DateUTC
2013-05-04 00:01:00,69.7,66.6,29.69,West,271,0.0,0.0,90,0.00,,BKN090,0.01,0.00,VWS V14.00,2013-05-04 04:01:00,
2013-05-04 00:06:00,69.8,67.1,29.69,West,271,0.0,0.0,91,0.00,,BKN090,0.00,0.00,VWS V14.00,2013-05-04 04:06:00,
2013-05-04 00:11:00,69.9,67.2,29.69,West,271,0.0,0.0,91,0.00,,BKN090,0.00,0.00,VWS V14.00,2013-05-04 04:11:00,
2013-05-04 00:16:00,70.0,67.3,29.69,West,271,0.0,0.0,91,0.00,,BKN090,0.00,0.00,VWS V14.00,2013-05-04 04:16:00,
2013-05-04 00:21:00,69.8,67.1,29.69,West,271,0.0,0.0,91,0.00,,BKN090,0.00,0.00,VWS V14.00,2013-05-04 04:21:00,
2013-05-04 00:26:00,69.6,66.5,29.69,West,271,0.0,0.0,90,0.00,,BKN090,0.00,0.00,VWS V14.00,2013-05-04 04:26:00,
2013-05-04 00:31:00,69.6,66.5,29.69,West,271,0.0,0.0,90,0.00,,BKN090,0.00,0.00,VWS V14.00,2013-05-04 04:31:00,
2013-05-04 00:36:00,69.7,66.6,29.69,West,271,0.0,0.0,90,0.00,,BKN090,0.00,0.00,VWS V14.00,2013-05-04 04:36:00,
2013-05-04 00:41:00,69.7,67.0,29.69,West,271,0.0,0.0,91,0.00,,BKN090,0.00,0.00,VWS V14.00,2013-05-04 04:41:00,
2013-05-04 00:46:00,70.0,67.3,29.69,West,271,0.0,0.0,91,0.00,,BKN090,0.00,0.00,VWS V14.00,2013-05-04 04:46:00,
2013-05-04 00:51:00,70.1,67.4,29.69,West,271,0.0,0.0,91,0.00,,BKN090,0.00,0.00,VWS V14.00,2013-05-04 04:51:00,
2013-05-04 00:56:00,70.1,67.4,29.69,West,271,0.0,0.0,91,0.00,,BKN090,0.00,0.00,VWS V14.00,2013-05-04 04:56:00,
2013-05-04 01:01:00,70.0,67.3,29.69,West,271,0.0,0.0,91,0.00,,BKN090,0.00,0.00,VWS V14.00,2013-05-04 05:01:00,
2013-05-04 01:07:00,69.8,67.1,29.68,West,271,0.0,0.0,91,0.00,,BKN090,0.00,0.00,VWS V14.00,2013-05-04 05:07:00,
2013-05-04 01:12:00,69.7,66.6,29.68,West,271,0.0,0.0,90,0.00,,BKN090,0.00,0.00,VWS V14.00,2013-05-04 05:12:00,
2013-05-04 01:17:00,69.6,66.5,29.68,West,271,0.0,0.0,90,0.00,,BKN090,0.00,0.00,VWS V14.00,2013-05-04 05:17:00,
2013-05-04 01:22:00,69.5,66.8,29.68,West,271,0.0,0.0,91,0.00,,BKN090,0.00,0.00,VWS V14.00,2013-05-04 05:22:00,
2013-05-04 01:27:00,69.7,67.0,29.68,West,271,0.0,0.0,91,0.00,,BKN090,0.00,0.00,VWS V14.00,2013-05-04 05:27:00,
2013-05-04 01:32:00,70.0,67.3,29.67,West,271,0.0,0.0,91,0.00,,BKN090,0.00,0.00,VWS V14.00,2013-05-04 05:32:00,
2013-05-04 01:37:00,70.1,67.4,29.67,West,271,0.0,0.0,91,0.00,,BKN090,0.00,0.00,VWS V14.00,2013-05-04 05:37:00,
2013-05-04 01:42:00,70.2,67.4,29.67,West,271,0.0,0.0,91,0.00,,BKN090,0.00,0.00,VWS V14.00,2013-05-04 05:42:00,
2013-05-04 01:47:00,70.3,67.6,29.67,West,271,0.0,0.0,91,0.00,,BKN090,0.00,0.00,VWS V14.00,2013-05-04 05:47:00,
2013-05-04 01:52:00,70.2,67.4,29.67,West,271,0.0,1.0,91,0.00,,BKN090,0.00,0.00,VWS V14.00,2013-05-04 05:52:00,
2013-05-04 01:57:00,70.1,67.4,29.67,West,271,0.0,0.0,91,0.00,,BKN090,0.00,0.00,VWS V14.00,2013-05-04 05:57:00,
2013-05-04 02:02:00,70.0,67.3,29.67,West,271,0.0,0.0,91,0.00,,BKN090,0.00,0.00,VWS V14.00,2013-05-04 06:02:00,
2013-05-04 02:07:00,70.0,67.3,29.66,West,271,0.0,1.0,91,0.00,,BKN090,0.00,0.00,VWS V14.00,2013-05-04 06:07:00,
2013-05-04 02:12:00,69.9,67.2,29.66,West,271,0.0,1.0,91,0.00,,BKN090,0.00,0.00,VWS V14.00,2013-05-04 06:12:00,
2013-05-04 02:17:00,69.8,67.1,29.66,West,271,0.0,0.0,91,0.00,,BKN090,0.00,0.00,VWS V14.00,2013-05-04 06:17:00,
2013-05-04 02:22:00,69.7,67.0,29.65,West,271,0.0,0.0,91,0.00,,BKN090,0.00,0.00,VWS V14.00,2013-05-04 06:22:00,
2013-05-04 02:27:00,69.6,66.9,29.65,West,271,0.0,0.0,91,0.00,,BKN090,0.00,0.00,VWS V14.00,2013-05-04 06:27:00,
2013-05-04 02:32:00,69.5,66.8,29.65,West,271,0.0,1.0,91,0.00,,BKN090,0.00,0.00,VWS V14.00,2013-05-04 06:32:00,
2013-05-04 02:37:00,69.4,66.7,29.65,West,271,0.0,1.0,91,0.00,,BKN090,0.00,0.00,VWS V14.00,2013-05-04 06:37:00,
2013-05-04 02:42:00,69.4,66.7,29.65,West,271,0.0,0.0,91,0.00,,BKN090,0.00,0.00,VWS V14.00,2013-05-04 06:42:00,
2013-05-04 02:47:00,69.4,66.7,29.65,West,271,0.0,0.0,91,0.00,,BKN090,0.00,0.00,VWS V14.00,2013-05-04 06:47:00,
2013-05-04 02:52:00,69.4,66.7,29.65,West,271,2.0,3.0,91,0.00,,BKN090,0.00,0.00,VWS V14.00,2013-05-04 06:52:00,
2013-05-04 02:57:00,69.4,66.7,29.65,West,271,0.0,2.0,91,0.00,,BKN090,0.00,0.00,VWS V14.00,2013-05-04 06:57:00,
2013-05-04 03:02:00,69.3,66.6,29.65,West,271,2.0,3.0,91,0.00,,BKN090,0.00,0.00,VWS V14.00,2013-05-04 07:02:00,
2013-05-04 03:07:00,69.4,66.7,29.65,West,271,0.0,1.0,91,0.00,,BKN090,0.00,0.00,VWS V14.00,2013-05-04 07:07:00,
2013-05-04 03:12:00,69.4,66.7,29.65,West,271,0.0,0.0,91,0.00,,BKN090,0.00,0.00,VWS V14.00,2013-05-04 07:12:00,
2013-05-04 03:17:00,69.5,66.8,29.65,West,271,0.0,1.0,91,0.00,,BKN090,0.00,0.00,VWS V14.00,2013-05-04 07:17:00,
2013-05-04 03:22:00,69.4,66.7,29.65,West,271,0.0,0.0,91,0.00,,BKN090,0.00,0.00,VWS V14.00,2013-05-04 07:22:00,
2013-05-04 03:27:00,69.4,66.7,29.65,West,271,0.0,1.0,91,0.00,,BKN090,0.00,0.00,VWS V14.00,2013-05-04 07:27:00,
2013-05-04 03:32:00,69.4,66.7,29.65,West,271,0.0,0.0,91,0.00,,BKN090,0.00,0.00,VWS V14.00,2013-05-04 07:32:00,
2013-05-04 03:37:00,69.4,66.7,29.65,West,271,0.0,4.0,91,0.00,,BKN090,0.00,0.00,VWS V14.00,2013-05-04 07:37:00,
2013-05-04 03:42:00,69.3,66.6,29.65,West,271,2.0,4.0,91,0.00,,BKN090,0.00,0.00,VWS V14.00,2013-05-04 07:42:00,
2013-05-04 03:47:00,69.4,66.7,29.65,West,271,3.0,3.0,91,0.00,,BKN090,0.00,0.00,VWS V14.00,2013-05-04 07:47:00,
2013-05-04 03:52:00,69.3,66.6,29.65,West,271,0.0,1.0,91,0.00,,BKN090,0.00,0.00,VWS V14.00,2013-05-04 07:52:00,
2013-05-04 03:57:00,69.3,66.6,29.65,West,271,0.0,1.0,91,0.00,,BKN090,0.00,0.00,VWS V14.00,2013-05-04 07:57:00,
2013-05-04 04:02:00,69.3,66.6,29.65,West,271,0.0,1.0,91,0.00,,BKN090,0.00,0.00,VWS V14.00,2013-05-04 08:02:00,
2013-05-04 04:07:00,69.2,66.5,29.65,West,271,0.0,0.0,91,0.00,,BKN090,0.00,0.00,VWS V14.00,2013-05-04 08:07:00,
2013-05-04 04:12:00,69.2,66.5,29.66,West,271,0.0,1.0,91,0.00,,BKN090,0.00,0.00,VWS V14.00,2013-05-04 08:12:00,
2013-05-04 04:17:00,69.2,66.5,29.66,West,271,0.0,1.0,91,0.00,,BKN090,0.00,0.00,VWS V14.00,2013-05-04 08:17:00,
2013-05-04 04:22:00,69.1,66.4,29.66,West,271,0.0,0.0,91,0.00,,BKN090,0.00,0.00,VWS V14.00,2013-05-04 08:22:00,
2013-05-04 04:27:00,69.1,66.4,29.66,West,271,0.0,0.0,91,0.00,,BKN090,0.00,0.00,VWS V14.00,2013-05-04 08:27:00,
2013-05-04 04:32:00,69.1,66.4,29.66,West,271,0.0,0.0,91,0.00,,BKN090,0.00,0.00,VWS V14.00,2013-05-04 08:32:00,
2013-05-04 04:37:00,69.0,66.3,29.66,West,271,0.0,1.0,91,0.00,,BKN090,0.00,0.00,VWS V14.00,2013-05-04 08:37:00,
2013-05-04 04:42:00,69.0,66.3,29.66,West,271,0.0,0.0,91,0.00,,BKN090,0.00,0.00,VWS V14.00,2013-05-04 08:42:00,
2013-05-04 04:47:00,68.9,66.2,29.66,West,271,0.0,0.0,91,0.00,,BKN090,0.00,0.00,VWS V14.00,2013-05-04 08:47:00,
2013-05-04 04:52:00,68.8,66.1,29.65,West,271,0.0,0.0,91,0.00,,BKN090,0.00,0.00,VWS V14.00,2013-05-04 08:52:00,
2013-05-04 04:57:00,68.8,66.1,29.65,West,271,0.0,2.0,91,0.00,,BKN090,0.00,0.00,VWS V14.00,2013-05-04 08:57:00,
2013-05-04 05:02:00,68.7,66.0,29.65,West,271,0.0,0.0,91,0.00,,BKN090,0.00,0.00,VWS V14.00,2013-05-04 09:02:00,
2013-05-04 05:07:00,68.6,65.9,29.65,West,271,0.0,0.0,91,0.00,,BKN090,0.00,0.00,VWS V14.00,2013-05-04 09:07:00,
2013-05-04 05:13:00,68.6,65.9,29.65,West,271,0.0,0.0,91,0.00,,BKN090,0.00,0.00,VWS V14.00,2013-05-04 09:13:00,
2013-05-04 05:18:00,68.6,65.9,29.66,West,271,0.0,1.0,91,0.00,,BKN090,0.00,0.00,VWS V14.00,2013-05-04 09:18:00,
2013-05-04 05:23:00,68.6,65.9,29.66,West,271,0.0,0.0,91,0.00,,BKN090,0.00,0.00,VWS V14.00,2013-05-04 09:23:00,
2013-05-04 05:28:00,68.6,65.9,29.66,West,271,0.0,0.0,91,0.00,,BKN090,0.00,0.00,VWS V14.00,2013-05-04 09:28:00,
2013-05-04 05:33:00,68.6,65.9,29.66,West,271,1.0,1.0,91,0.00,,BKN090,0.00,0.00,VWS V14.00,2013-05-04 09:33:00,
2013-05-04 05:38:00,68.6,65.9,29.66,West,271,0.0,0.0,91,0.00,,BKN090,0.00,0.00,VWS V14.00,2013-05-04 09:38:00,
2013-05-04 05:43:00,68.5,65.8,29.66,West,271,0.0,0.0,91,0.00,,BKN090,0.00,0.00,VWS V14.00,2013-05-04 09:43:00,
2013-05-04 05:48:00,68.5,65.8,29.66,West,271,0.0,1.0,91,0.00,,BKN090,0.00,0.00,VWS V14.00,2013-05-04 09:48:00,
2013-05-04 05:53:00,68.4,65.7,29.66,West,271,0.0,0.0,91,0.00,,BKN090,0.00,0.00,VWS V14.00,2013-05-04 09:53:00,
2013-05-04 05:58:00,68.4,65.7,29.66,West,271,0.0,1.0,91,0.00,,BKN090,0.00,0.00,VWS V14.00,2013-05-04 09:58:00,
2013-05-04 06:03:00,68.4,65.7,29.67,West,271,0.0,0.0,91,0.00,,BKN090,0.00,0.00,VWS V14.00,2013-05-04 10:03:00,
2013-05-04 06:08:00,68.4,65.7,29.67,West,271,0.0,1.0,91,0.00,,BKN090,0.00,0.00,VWS V14.00,2013-05-04 10:08:00,
2013-05-04 06:13:00,68.3,65.6,29.67,West,271,0.0,0.0,91,0.00,,BKN090,0.00,0.00,VWS V14.00,2013-05-04 10:13:00,
2013-05-04 06:18:00,68.3,65.6,29.67,West,271,0.0,0.0,91,0.00,,BKN090,0.00,0.00,VWS V14.00,2013-05-04 10:18:00,
2013-05-04 06:23:00,68.3,65.6,29.67,West,271,0.0,0.0,91,0.00,,BKN090,0.00,0.00,VWS V14.00,2013-05-04 10:23:00,
2013-05-04 06:28:00,68.3,65.6,29.67,West,271,0.0,0.0,91,0.00,,BKN090,0.00,0.00,VWS V14.00,2013-05-04 10:28:00,
2013-05-04 06:33:00,68.2,65.5,29.67,West,271,0.0,1.0,91,0.00,,BKN090,0.00,0.00,VWS V14.00,2013-05-04 10:33:00,
2013-05-04 06:38:00,68.2,65.5,29.68,West,271,2.0,3.0,91,0.00,,BKN090,0.00,0.00,VWS V14.00,2013-05-04 10:38:00,
2013-05-04 06:43:00,68.2,65.5,29.68,West,271,0.0,0.0,91,0.00,,BKN090,0.00,0.00,VWS V14.00,2013-05-04 10:43:00,
2013-05-04 06:48:00,68.2,65.5,29.69,West,271,2.0,3.0,91,0.00,,BKN090,0.00,0.00,VWS V14.00,2013-05-04 10:48:00,
2013-05-04 06:53:00,68.2,65.5,29.68,West,271,0.0,0.0,91,0.00,,BKN090,0.00,5.00,VWS V14.00,2013-05-04 10:53:00,
2013-05-04 06:58:00,68.2,65.5,29.68,West,271,0.0,1.0,91,0.00,,BKN090,0.00,62.00,VWS V14.00,2013-05-04 10:58:00,
2013-05-04 07:03:00,68.2,65.5,29.69,West,271,0.0,2.0,91,0.00,,BKN090,0.00,118.00,VWS V14.00,2013-05-04 11:03:00,
2013-05-04 07:08:00,68.3,65.6,29.69,West,271,0.0,0.0,91,0.00,,SCT120,0.00,206.00,VWS V14.00,2013-05-04 11:08:00,
2013-05-04 07:13:00,68.3,65.6,29.69,West,271,0.0,0.0,91,0.00,,SCT120,0.00,237.00,VWS V14.00,2013-05-04 11:13:00,
2013-05-04 07:18:00,68.3,65.6,29.69,West,271,0.0,0.0,91,0.00,,SCT120,0.00,250.00,VWS V14.00,2013-05-04 11:18:00,
2013-05-04 07:23:00,68.3,65.6,29.69,West,271,0.0,0.0,91,0.00,,SCT120,0.00,183.00,VWS V14.00,2013-05-04 11:23:00,
2013-05-04 07:28:00,68.4,65.7,29.69,West,271,0.0,0.0,91,0.00,,SCT120,0.00,193.00,VWS V14.00,2013-05-04 11:28:00,
2013-05-04 07:33:00,68.6,65.9,29.69,West,271,1.0,3.0,91,0.00,,SCT120,0.00,199.00,VWS V14.00,2013-05-04 11:33:00,
2013-05-04 07:38:00,68.8,66.1,29.69,West,271,3.0,4.0,91,0.00,,CLR,0.00,199.00,VWS V14.00,2013-05-04 11:38:00,
2013-05-04 07:44:00,69.0,66.3,29.69,West,271,0.0,0.0,91,0.00,,CLR,0.00,200.00,VWS V14.00,2013-05-04 11:44:00,
2013-05-04 07:49:00,69.2,66.5,29.70,West,271,4.0,5.0,91,0.00,,CLR,0.00,199.00,VWS V14.00,2013-05-04 11:49:00,
2013-05-04 07:54:00,69.4,66.7,29.70,West,271,0.0,5.0,91,0.00,,CLR,0.00,200.00,VWS V14.00,2013-05-04 11:54:00,
2013-05-04 07:59:00,69.5,66.8,29.70,West,271,3.0,6.0,91,0.00,,CLR,0.00,206.00,VWS V14.00,2013-05-04 11:59:00,
2013-05-04 08:04:00,69.6,66.9,29.70,West,271,4.0,5.0,91,0.00,,CLR,0.00,246.00,VWS V14.00,2013-05-04 12:04:00,
2013-05-04 08:09:00,69.8,67.1,29.70,West,271,0.0,4.0,91,0.00,,CLR,0.00,248.00,VWS V14.00,2013-05-04 12:09:00,
2013-05-04 08:14:00,69.9,67.2,29.70,West,271,0.0,4.0,91,0.00,,CLR,0.00,190.00,VWS V14.00,2013-05-04 12:14:00,
2013-05-04 08:19:00,70.2,67.4,29.70,West,271,0.0,3.0,91,0.00,,CLR,0.00,134.00,VWS V14.00,2013-05-04 12:19:00,
2013-05-04 08:24:00,70.5,67.8,29.70,West,271,3.0,4.0,91,0.00,,CLR,0.00,176.00,VWS V14.00,2013-05-04 12:24:00,
2013-05-04 08:30:00,70.6,67.8,29.70,West,271,0.0,1.0,91,0.00,,CLR,0.00,172.00,VWS V14.00,2013-05-04 12:30:00,
2013-05-04 08:35:00,70.9,68.2,29.70,West,271,0.0,4.0,91,0.00,,CLR,0.00,169.00,VWS V14.00,2013-05-04 12:35:00,
2013-05-04 08:40:00,71.3,68.5,29.70,West,272,3.0,3.0,91,0.00,,CLR,0.00,171.00,VWS V14.00,2013-05-04 12:40:00,
2013-05-04 08:45:00,71.6,68.8,29.70,West,277,2.0,5.0,91,0.00,,CLR,0.00,181.00,VWS V14.00,2013-05-04 12:45:00,
2013-05-04 08:50:00,71.7,68.6,29.70,WNW,286,5.0,6.0,90,0.00,,CLR,0.00,181.00,VWS V14.00,2013-05-04 12:50:00,
2013-05-04 08:55:00,71.7,68.6,29.70,WNW,292,7.0,7.0,90,0.00,,CLR,0.00,178.00,VWS V14.00,2013-05-04 12:55:00,
2013-05-04 09:00:00,71.7,68.6,29.71,NW,312,3.0,6.0,90,0.00,,CLR,0.00,197.00,VWS V14.00,2013-05-04 13:00:00,
2013-05-04 09:04:00,72.0,68.9,29.70,NW,309,4.0,5.0,90,0.00,,CLR,0.00,90.00,VWS V14.00,2013-05-04 13:04:00,
2013-05-04 09:09:00,72.4,69.0,29.70,NW,306,1.0,2.0,89,0.00,,CLR,0.00,88.00,VWS V14.00,2013-05-04 13:09:00,
2013-05-04 09:14:00,72.6,69.2,29.71,NW,317,5.0,7.0,89,0.00,,CLR,0.00,199.00,VWS V14.00,2013-05-04 13:14:00,
2013-05-04 09:19:00,72.9,69.5,29.70,WNW,298,4.0,8.0,89,0.00,,CLR,0.00,158.00,VWS V14.00,2013-05-04 13:19:00,
2013-05-04 09:24:00,73.3,69.5,29.70,WNW,298,0.0,3.0,88,0.00,,CLR,0.00,79.00,VWS V14.00,2013-05-04 13:24:00,
2013-05-04 09:29:00,73.6,69.5,29.70,WNW,292,5.0,7.0,87,0.00,,CLR,0.00,86.00,VWS V14.00,2013-05-04 13:29:00,
2013-05-04 09:34:00,74.0,69.6,29.70,NW,311,0.0,7.0,86,0.00,,CLR,0.00,204.00,VWS V14.00,2013-05-04 13:34:00,
2013-05-04 09:39:00,74.3,69.5,29.70,NW,321,7.0,11.0,85,0.00,,CLR,0.00,207.00,VWS V14.00,2013-05-04 13:39:00,
2013-05-04 09:44:00,74.6,69.4,29.70,NNW,329,4.0,9.0,84,0.00,,FEW015,0.00,202.00,VWS V14.00,2013-05-04 13:44:00,
2013-05-04 09:49:00,75.0,69.5,29.70,NW,315,3.0,7.0,83,0.00,,FEW015,0.00,193.00,VWS V14.00,2013-05-04 13:49:00,
2013-05-04 09:54:00,75.2,69.3,29.71,NW,321,6.0,7.0,82,0.00,,FEW015,0.00,193.00,VWS V14.00,2013-05-04 13:54:00,
2013-05-04 09:59:00,75.3,69.1,29.71,NNW,333,7.0,10.0,81,0.00,,FEW015,0.00,197.00,VWS V14.00,2013-05-04 13:59:00,
2013-05-04 10:04:00,75.6,69.4,29.71,WNW,295,9.0,9.0,81,0.00,,FEW015,0.00,114.00,VWS V14.00,2013-05-04 14:04:00,
2013-05-04 10:09:00,75.9,69.3,29.71,NNW,331,4.0,9.0,80,0.00,,FEW015,0.00,211.00,VWS V14.00,2013-05-04 14:09:00,
2013-05-04 10:14:00,76.1,69.1,29.71,NNW,338,6.0,12.0,79,0.00,,FEW015,0.00,137.00,VWS V14.00,2013-05-04 14:14:00,
2013-05-04 10:19:00,76.1,69.1,29.71,WNW,290,8.0,12.0,79,0.00,,FEW015,0.00,227.00,VWS V14.00,2013-05-04 14:19:00,
2013-05-04 10:24:00,76.3,69.3,29.71,NNW,347,9.0,10.0,79,0.00,,FEW015,0.00,169.00,VWS V14.00,2013-05-04 14:24:00,
2013-05-04 10:29:00,76.6,69.6,29.71,WNW,292,5.0,10.0,79,0.00,,FEW015,0.00,90.00,VWS V14.00,2013-05-04 14:29:00,
2013-05-04 10:34:00,76.7,69.3,29.71,NW,318,5.0,9.0,78,0.00,,FEW015,0.00,218.00,VWS V14.00,2013-05-04 14:34:00,
2013-05-04 10:39:00,77.0,69.2,29.71,North,349,10.0,10.0,77,0.00,,BKN023,0.00,232.00,VWS V14.00,2013-05-04 14:39:00,
2013-05-04 10:44:00,77.2,69.4,29.72,NW,313,6.0,6.0,77,0.00,,BKN023,0.00,172.00,VWS V14.00,2013-05-04 14:44:00,
2013-05-04 10:49:00,77.1,69.0,29.71,North,355,5.0,10.0,76,0.00,,BKN023,0.00,251.00,VWS V14.00,2013-05-04 14:49:00,
2013-05-04 10:54:00,77.5,69.3,29.72,WNW,292,4.0,8.0,76,0.00,,BKN023,0.00,257.00,VWS V14.00,2013-05-04 14:54:00,
2013-05-04 11:00:00,77.6,69.1,29.72,NW,310,3.0,9.0,75,0.00,,BKN023,0.00,246.00,VWS V14.00,2013-05-04 15:00:00,
2013-05-04 11:05:00,77.5,68.6,29.72,North,350,7.0,8.0,74,0.00,,BKN023,0.00,243.00,VWS V14.00,2013-05-04 15:05:00,
2013-05-04 11:10:00,77.7,69.2,29.72,North,5,2.0,7.0,75,0.00,,BKN023,0.00,253.00,VWS V14.00,2013-05-04 15:10:00,
2013-05-04 11:15:00,78.2,69.6,29.72,NW,326,5.0,7.0,75,0.00,,BKN023,0.00,100.00,VWS V14.00,2013-05-04 15:15:00,
2013-05-04 11:20:00,78.4,69.4,29.72,NNW,333,4.0,5.0,74,0.00,,BKN023,0.00,243.00,VWS V14.00,2013-05-04 15:20:00,
2013-05-04 11:25:00,78.5,69.1,29.72,WNW,297,9.0,9.0,73,0.00,,BKN023,0.00,153.00,VWS V14.00,2013-05-04 15:25:00,
2013-05-04 11:30:00,78.4,69.0,29.72,WNW,298,9.0,11.0,73,0.00,,BKN023,0.00,148.00,VWS V14.00,2013-05-04 15:30:00,
2013-05-04 11:35:00,78.3,68.9,29.72,NNW,344,2.0,6.0,73,0.00,,BKN023,0.00,95.00,VWS V14.00,2013-05-04 15:35:00,
2013-05-04 11:40:00,78.5,69.5,29.72,WNW,291,7.0,10.0,74,0.00,,BKN029,0.00,107.00,VWS V14.00,2013-05-04 15:40:00,
2013-05-04 11:45:00,78.9,69.5,29.72,NW,314,6.0,6.0,73,0.00,,BKN029,0.00,114.00,VWS V14.00,2013-05-04 15:45:00,
2013-05-04 11:50:00,78.6,68.8,29.72,NNW,346,4.0,11.0,72,0.00,,BKN029,0.00,83.00,VWS V14.00,2013-05-04 15:50:00,
2013-05-04 11:55:00,78.7,69.7,29.71,North,10,9.0,10.0,74,0.00,,BKN029,0.00,267.00,VWS V14.00,2013-05-04 15:55:00,
2013-05-04 12:00:00,78.8,69.0,29.72,North,349,3.0,10.0,72,0.00,,BKN029,0.00,98.00,VWS V14.00,2013-05-04 16:00:00,
2013-05-04 12:05:00,78.5,68.7,29.71,WNW,295,2.0,10.0,72,0.00,,BKN029,0.00,121.00,VWS V14.00,2013-05-04 16:05:00,
2013-05-04 12:10:00,78.8,68.6,29.71,NNW,347,10.0,11.0,71,0.00,,BKN029,0.00,118.00,VWS V14.00,2013-05-04 16:10:00,
2013-05-04 12:15:00,78.8,68.6,29.71,North,350,8.0,12.0,71,0.00,,BKN029,0.00,116.00,VWS V14.00,2013-05-04 16:15:00,
2013-05-04 12:20:00,79.0,68.8,29.71,NW,313,3.0,9.0,71,0.00,,BKN029,0.00,130.00,VWS V14.00,2013-05-04 16:20:00,
2013-05-04 12:25:00,79.2,68.6,29.71,North,5,6.0,12.0,70,0.00,,BKN029,0.00,292.00,VWS V14.00,2013-05-04 16:25:00,
2013-05-04 12:30:00,79.3,69.1,29.71,WNW,300,5.0,8.0,71,0.00,,BKN029,0.00,155.00,VWS V14.00,2013-05-04 16:30:00,
2013-05-04 12:35:00,79.6,69.0,29.71,NW,316,10.0,11.0,70,0.00,,BKN029,0.00,169.00,VWS V14.00,2013-05-04 16:35:00,
2013-05-04 12:40:00,79.7,69.1,29.71,NNW,338,6.0,10.0,70,0.00,,BKN040,0.00,121.00,VWS V14.00,2013-05-04 16:40:00,
2013-05-04 12:45:00,79.9,68.4,29.70,NNW,345,6.0,11.0,68,0.00,,BKN040,0.00,248.00,VWS V14.00,2013-05-04 16:45:00,
2013-05-04 12:50:00,80.0,68.9,29.70,North,9,10.0,11.0,69,0.00,,BKN040,0.00,218.00,VWS V14.00,2013-05-04 16:50:00,
2013-05-04 12:55:00,79.9,69.2,29.70,NNW,348,6.0,10.0,70,0.00,,BKN040,0.00,204.00,VWS V14.00,2013-05-04 16:55:00,
2013-05-04 13:00:00,80.2,69.5,29.70,NNW,338,5.0,8.0,70,0.00,,BKN040,0.00,165.00,VWS V14.00,2013-05-04 17:00:00,
2013-05-04 13:05:00,80.5,69.8,29.69,NW,309,5.0,9.0,70,0.00,,BKN040,0.00,204.00,VWS V14.00,2013-05-04 17:05:00,
2013-05-04 13:10:00,80.3,68.8,29.69,North,351,6.0,11.0,68,0.00,,BKN040,0.00,204.00,VWS V14.00,2013-05-04 17:10:00,
2013-05-04 13:15:00,80.6,69.5,29.69,NW,313,7.0,12.0,69,0.00,,BKN040,0.00,178.00,VWS V14.00,2013-05-04 17:15:00,
2013-05-04 13:20:00,80.8,69.7,29.69,NNW,344,4.0,9.0,69,0.00,,BKN040,0.00,221.00,VWS V14.00,2013-05-04 17:20:00,
2013-05-04 13:25:00,80.9,68.9,29.69,NW,321,5.0,7.0,67,0.00,,BKN040,0.00,225.00,VWS V14.00,2013-05-04 17:25:00,
2013-05-04 13:30:00,81.1,69.1,29.69,WNW,299,9.0,9.0,67,0.00,,BKN040,0.00,93.00,VWS V14.00,2013-05-04 17:30:00,
2013-05-04 13:36:00,81.1,69.6,29.69,WNW,292,4.0,5.0,68,0.00,,BKN040,0.00,229.00,VWS V14.00,2013-05-04 17:36:00,
2013-05-04 13:41:00,81.8,69.3,29.69,West,279,3.0,12.0,66,0.00,,BKN055,0.00,237.00,VWS V14.00,2013-05-04 17:41:00,
2013-05-04 13:46:00,81.4,69.0,29.69,North,11,11.0,12.0,66,0.00,,BKN055,0.00,114.00,VWS V14.00,2013-05-04 17:46:00,
2013-05-04 13:51:00,81.1,68.7,29.69,NNW,344,0.0,3.0,66,0.00,,BKN055,0.00,241.00,VWS V14.00,2013-05-04 17:51:00,
2013-05-04 13:57:00,81.7,69.2,29.68,WNW,292,0.0,11.0,66,0.00,,BKN055,0.00,183.00,VWS V14.00,2013-05-04 17:57:00,
2013-05-04 14:02:00,82.1,70.1,29.68,NW,306,5.0,5.0,67,0.00,,BKN055,0.00,220.00,VWS V14.00,2013-05-04 18:02:00,
2013-05-04 14:07:00,82.3,68.9,29.68,WNW,300,7.0,7.0,64,0.00,,BKN055,0.00,139.00,VWS V14.00,2013-05-04 18:07:00,
2013-05-04 14:12:00,82.0,68.6,29.68,NW,305,4.0,8.0,64,0.00,,BKN055,0.00,88.00,VWS V14.00,2013-05-04 18:12:00,
2013-05-04 14:17:00,82.1,69.2,29.68,NW,315,6.0,6.0,65,0.00,,BKN055,0.00,241.00,VWS V14.00,2013-05-04 18:17:00,
2013-05-04 14:22:00,82.4,68.6,29.68,WNW,294,4.0,11.0,63,0.00,,BKN055,0.00,93.00,VWS V14.00,2013-05-04 18:22:00,
2013-05-04 14:27:00,82.6,69.2,29.68,NW,306,5.0,6.0,64,0.00,,BKN055,0.00,227.00,VWS V14.00,2013-05-04 18:27:00,
2013-05-04 14:32:00,83.0,69.6,29.67,WNW,297,4.0,9.0,64,0.00,,BKN055,0.00,232.00,VWS V14.00,2013-05-04 18:32:00,
2013-05-04 14:37:00,83.4,68.6,29.67,WNW,296,5.0,10.0,61,0.00,,BKN055,0.00,220.00,VWS V14.00,2013-05-04 18:37:00,
2013-05-04 14:42:00,83.1,68.3,29.67,WNW,294,3.0,4.0,61,0.00,,BKN055,0.00,213.00,VWS V14.00,2013-05-04 18:42:00,
2013-05-04 14:47:00,83.0,68.2,29.66,WNW,288,4.0,9.0,61,0.00,,BKN055,0.00,72.00,VWS V14.00,2013-05-04 18:47:00,
2013-05-04 14:52:00,83.1,68.3,29.66,WNW,293,3.0,9.0,61,0.00,,BKN055,0.00,134.00,VWS V14.00,2013-05-04 18:52:00,
2013-05-04 14:57:00,83.7,68.3,29.66,NW,306,6.0,7.0,60,0.00,,BKN055,0.00,118.00,VWS V14.00,2013-05-04 18:57:00,
2013-05-04 15:02:00,83.8,68.4,29.66,WNW,292,4.0,7.0,60,0.00,,BKN055,0.00,214.00,VWS V14.00,2013-05-04 19:02:00,
2013-05-04 15:07:00,83.9,68.1,29.66,NW,315,7.0,7.0,59,0.00,,BKN055,0.00,91.00,VWS V14.00,2013-05-04 19:07:00,
2013-05-04 15:12:00,83.5,67.2,29.65,NNW,335,7.0,10.0,58,0.00,,BKN055,0.00,72.00,VWS V14.00,2013-05-04 19:12:00,
2013-05-04 15:17:00,83.2,67.4,29.65,NNW,329,5.0,7.0,59,0.00,,BKN055,0.00,216.00,VWS V14.00,2013-05-04 19:17:00,
2013-05-04 15:22:00,83.4,68.1,29.65,WNW,303,3.0,10.0,60,0.00,,BKN055,0.00,199.00,VWS V14.00,2013-05-04 19:22:00,
2013-05-04 15:27:00,84.1,69.2,29.65,NW,306,5.0,6.0,61,0.00,,BKN055,0.00,102.00,VWS V14.00,2013-05-04 19:27:00,
2013-05-04 15:32:00,84.4,68.5,29.65,North,355,13.0,15.0,59,0.00,,BKN055,0.00,100.00,VWS V14.00,2013-05-04 19:32:00,
2013-05-04 15:37:00,84.5,68.1,29.65,NW,315,3.0,7.0,58,0.00,,SCT050,0.00,195.00,VWS V14.00,2013-05-04 19:37:00,
2013-05-04 15:42:00,85.1,68.7,29.65,West,277,6.0,10.0,58,0.00,,SCT050,0.00,197.00,VWS V14.00,2013-05-04 19:42:00,
2013-05-04 15:47:00,85.3,67.8,29.65,WNW,285,3.0,6.0,56,0.00,,SCT050,0.00,128.00,VWS V14.00,2013-05-04 19:47:00,
2013-05-04 15:52:00,85.0,67.6,29.65,West,269,10.0,12.0,56,0.00,,SCT050,0.00,207.00,VWS V14.00,2013-05-04 19:52:00,
2013-05-04 15:57:00,84.4,68.0,29.65,WNW,296,3.0,7.0,58,0.00,,SCT050,0.00,200.00,VWS V14.00,2013-05-04 19:57:00,
2013-05-04 16:02:00,84.4,68.0,29.65,NNW,340,5.0,12.0,58,0.00,,SCT050,0.00,190.00,VWS V14.00,2013-05-04 20:02:00,
2013-05-04 16:07:00,84.5,68.6,29.65,WNW,286,9.0,12.0,59,0.00,,SCT050,0.00,77.00,VWS V14.00,2013-05-04 20:07:00,
2013-05-04 16:12:00,85.1,68.7,29.65,WNW,282,6.0,10.0,58,0.00,,SCT050,0.00,190.00,VWS V14.00,2013-05-04 20:12:00,
2013-05-04 16:17:00,85.2,67.8,29.65,NW,315,8.0,10.0,56,0.00,,SCT050,0.00,83.00,VWS V14.00,2013-05-04 20:17:00,
2013-05-04 16:22:00,85.1,68.7,29.65,NNW,338,1.0,7.0,58,0.00,,SCT050,0.00,186.00,VWS V14.00,2013-05-04 20:22:00,
2013-05-04 16:27:00,85.4,68.4,29.64,NNW,340,2.0,5.0,57,0.00,,SCT050,0.00,186.00,VWS V14.00,2013-05-04 20:27:00,
2013-05-04 16:32:00,85.7,68.7,29.65,WNW,288,9.0,13.0,57,0.00,,SCT050,0.00,186.00,VWS V14.00,2013-05-04 20:32:00,
2013-05-04 16:37:00,86.1,68.6,29.65,NW,311,5.0,10.0,56,0.00,,BKN050,0.00,178.00,VWS V14.00,2013-05-04 20:37:00,
2013-05-04 16:42:00,85.9,68.4,29.65,WNW,298,11.0,11.0,56,0.00,,BKN050,0.00,165.00,VWS V14.00,2013-05-04 20:42:00,
2013-05-04 16:47:00,85.1,67.1,29.65,North,5,2.0,15.0,55,0.00,,BKN050,0.00,72.00,VWS V14.00,2013-05-04 20:47:00,
2013-05-04 16:52:00,84.7,67.8,29.65,NNW,343,7.0,11.0,57,0.00,,BKN050,0.00,83.00,VWS V14.00,2013-05-04 20:52:00,
2013-05-04 16:57:00,84.7,67.3,29.65,NW,316,6.0,12.0,56,0.00,,BKN050,0.00,178.00,VWS V14.00,2013-05-04 20:57:00,
2013-05-04 17:02:00,85.0,67.6,29.65,NNW,330,4.0,11.0,56,0.00,,BKN050,0.00,181.00,VWS V14.00,2013-05-04 21:02:00,
2013-05-04 17:07:00,85.4,68.4,29.65,NW,308,9.0,10.0,57,0.00,,BKN050,0.00,139.00,VWS V14.00,2013-05-04 21:07:00,
2013-05-04 17:12:00,84.8,68.4,29.65,NW,315,11.0,12.0,58,0.00,,BKN050,0.00,58.00,VWS V14.00,2013-05-04 21:12:00,
2013-05-04 17:17:00,84.1,68.7,29.65,North,350,11.0,15.0,60,0.00,,BKN050,0.00,67.00,VWS V14.00,2013-05-04 21:17:00,
2013-05-04 17:23:00,83.7,68.8,29.65,NNW,344,7.0,10.0,61,0.00,,BKN050,0.00,188.00,VWS V14.00,2013-05-04 21:23:00,
2013-05-04 17:28:00,83.8,68.9,29.65,NNW,347,9.0,13.0,61,0.00,,BKN050,0.00,102.00,VWS V14.00,2013-05-04 21:28:00,
2013-05-04 17:33:00,84.1,68.2,29.66,NW,321,7.0,14.0,59,0.00,,BKN050,0.00,174.00,VWS V14.00,2013-05-04 21:33:00,
2013-05-04 17:38:00,84.5,67.6,29.66,North,355,12.0,14.0,57,0.00,,BKN050CU,0.00,153.00,VWS V14.00,2013-05-04 21:38:00,
2013-05-04 17:43:00,84.4,68.5,29.66,NNW,329,4.0,8.0,59,0.00,,BKN050CU,0.00,146.00,VWS V14.00,2013-05-04 21:43:00,
2013-05-04 17:48:00,84.4,68.5,29.66,North,349,5.0,9.0,59,0.00,,BKN050CU,0.00,149.00,VWS V14.00,2013-05-04 21:48:00,
2013-05-04 17:53:00,84.5,68.6,29.66,NW,323,11.0,12.0,59,0.00,,BKN050CU,0.00,153.00,VWS V14.00,2013-05-04 21:53:00,
2013-05-04 17:58:00,84.6,67.7,29.66,NNW,335,6.0,6.0,57,0.00,,BKN050CU,0.00,135.00,VWS V14.00,2013-05-04 21:58:00,
2013-05-04 18:03:00,84.6,68.2,29.66,NNW,345,10.0,10.0,58,0.00,,BKN050CU,0.00,137.00,VWS V14.00,2013-05-04 22:03:00,
2013-05-04 18:08:00,84.5,68.6,29.66,North,355,9.0,9.0,59,0.00,,BKN050CU,0.00,127.00,VWS V14.00,2013-05-04 22:08:00,
2013-05-04 18:13:00,84.3,68.4,29.66,NW,306,5.0,9.0,59,0.00,,BKN050CU,0.00,120.00,VWS V14.00,2013-05-04 22:13:00,
2013-05-04 18:18:00,84.3,67.9,29.66,NNW,338,4.0,9.0,58,0.00,,BKN050CU,0.00,114.00,VWS V14.00,2013-05-04 22:18:00,
2013-05-04 18:23:00,83.9,67.6,29.66,North,355,10.0,14.0,58,0.00,,BKN050CU,0.00,111.00,VWS V14.00,2013-05-04 22:23:00,
2013-05-04 18:28:00,83.8,68.0,29.67,NW,306,6.0,17.0,59,0.00,,BKN050CU,0.00,105.00,VWS V14.00,2013-05-04 22:28:00,
2013-05-04 18:33:00,83.6,67.8,29.67,NW,314,3.0,11.0,59,0.00,,BKN050CU,0.00,105.00,VWS V14.00,2013-05-04 22:33:00,
2013-05-04 18:38:00,83.7,67.9,29.67,NNW,347,13.0,15.0,59,0.00,,SCT050CU,0.00,98.00,VWS V14.00,2013-05-04 22:38:00,
2013-05-04 18:43:00,83.5,68.2,29.67,North,355,5.0,12.0,60,0.00,,SCT050CU,0.00,88.00,VWS V14.00,2013-05-04 22:43:00,
2013-05-04 18:48:00,83.2,68.4,29.67,NNW,329,10.0,16.0,61,0.00,,SCT050CU,0.00,84.00,VWS V14.00,2013-05-04 22:48:00,
2013-05-04 18:53:00,82.9,68.1,29.67,NW,318,7.0,12.0,61,0.00,,SCT050CU,0.00,77.00,VWS V14.00,2013-05-04 22:53:00,
2013-05-04 18:58:00,82.7,67.9,29.67,WNW,299,4.0,10.0,61,0.00,,SCT050CU,0.00,69.00,VWS V14.00,2013-05-04 22:58:00,
2013-05-04 19:03:00,82.5,67.7,29.67,WNW,286,11.0,11.0,61,0.00,,SCT050CU,0.00,63.00,VWS V14.00,2013-05-04 23:03:00,
2013-05-04 19:08:00,82.3,68.0,29.67,NNW,334,0.0,7.0,62,0.00,,SCT050CU,0.00,56.00,VWS V14.00,2013-05-04 23:08:00,
2013-05-04 19:13:00,82.1,67.8,29.67,NW,307,4.0,7.0,62,0.00,,SCT050CU,0.00,49.00,VWS V14.00,2013-05-04 23:13:00,
2013-05-04 19:18:00,81.9,68.1,29.67,NW,315,0.0,3.0,63,0.00,,SCT050CU,0.00,44.00,VWS V14.00,2013-05-04 23:18:00,
2013-05-04 19:23:00,81.6,67.8,29.67,NW,315,5.0,6.0,63,0.00,,SCT050CU,0.00,25.00,VWS V14.00,2013-05-04 23:23:00,
2013-05-04 19:28:00,81.2,67.4,29.67,NW,309,2.0,9.0,63,0.00,,SCT050CU,0.00,23.00,VWS V14.00,2013-05-04 23:28:00,
2013-05-04 19:33:00,81.0,67.7,29.68,NW,316,2.0,5.0,64,0.00,,SCT050CU,0.00,14.00,VWS V14.00,2013-05-04 23:33:00,
2013-05-04 19:38:00,80.7,67.4,29.68,NW,308,4.0,6.0,64,0.00,,SCT050CU,0.00,11.00,VWS V14.00,2013-05-04 23:38:00,
2013-05-04 19:43:00,80.3,67.5,29.68,WNW,295,6.0,7.0,65,0.00,,SCT050CU,0.00,7.00,VWS V14.00,2013-05-04 23:43:00,
2013-05-04 19:48:00,80.0,67.2,29.68,WNW,290,4.0,8.0,65,0.00,,SCT050CU,0.00,5.00,VWS V14.00,2013-05-04 23:48:00,
2013-05-04 19:53:00,79.7,67.3,29.69,WNW,289,4.0,7.0,66,0.00,,SCT050CU,0.00,0.00,VWS V14.00,2013-05-04 23:53:00,
2013-05-04 19:58:00,79.4,67.5,29.69,WNW,292,5.0,7.0,67,0.00,,SCT050CU,0.00,0.00,VWS V14.00,2013-05-04 23:58:00,
2013-05-04 20:03:00,79.1,67.6,29.69,WNW,293,6.0,6.0,68,0.00,,SCT050CU,0.00,0.00,VWS V14.00,2013-05-05 00:03:00,
2013-05-04 20:08:00,78.9,67.4,29.69,WNW,294,5.0,5.0,68,0.00,,SCT050CU,0.00,0.00,VWS V14.00,2013-05-05 00:08:00,
2013-05-04 20:13:00,78.5,67.5,29.69,WNW,290,5.0,9.0,69,0.00,,FEW050CU,0.00,0.00,VWS V14.00,2013-05-05 00:13:00,
2013-05-04 20:18:00,78.3,67.3,29.69,WNW,290,1.0,2.0,69,0.00,,FEW050CU,0.00,0.00,VWS V14.00,2013-05-05 00:18:00,
2013-05-04 20:23:00,78.0,67.4,29.69,WNW,290,2.0,5.0,70,0.00,,FEW050CU,0.00,0.00,VWS V14.00,2013-05-05 00:23:00,
2013-05-04 20:28:00,77.8,67.2,29.70,WNW,290,2.0,3.0,70,0.00,,FEW050CU,0.00,0.00,VWS V14.00,2013-05-05 00:28:00,
2013-05-04 20:33:00,77.6,67.5,29.70,WNW,292,0.0,4.0,71,0.00,,FEW050CU,0.00,0.00,VWS V14.00,2013-05-05 00:33:00,
2013-05-04 20:38:00,77.4,67.3,29.70,WNW,292,3.0,5.0,71,0.00,,FEW050CU,0.00,0.00,VWS V14.00,2013-05-05 00:38:00,
2013-05-04 20:43:00,77.2,67.5,29.70,WNW,290,6.0,8.0,72,0.00,,FEW050CU,0.00,0.00,VWS V14.00,2013-05-05 00:43:00,
2013-05-04 20:48:00,77.0,67.3,29.70,WNW,294,4.0,6.0,72,0.00,,FEW050CU,0.00,0.00,VWS V14.00,2013-05-05 00:48:00,
2013-05-04 20:53:00,76.8,67.1,29.71,WNW,298,4.0,6.0,72,0.00,,FEW050CU,0.00,0.00,VWS V14.00,2013-05-05 00:53:00,
2013-05-04 20:58:00,76.6,66.9,29.71,WNW,290,3.0,10.0,72,0.00,,FEW050CU,0.00,0.00,VWS V14.00,2013-05-05 00:58:00,
2013-05-04 21:03:00,76.5,67.2,29.71,WNW,292,3.0,7.0,73,0.00,,FEW050CU,0.00,0.00,VWS V14.00,2013-05-05 01:03:00,
2013-05-04 21:08:00,76.3,67.0,29.71,WNW,292,5.0,7.0,73,0.00,,FEW050CU,0.00,0.00,VWS V14.00,2013-05-05 01:08:00,
2013-05-04 21:13:00,76.1,67.2,29.72,WNW,292,0.0,3.0,74,0.00,,FEW050CU,0.00,0.00,VWS V14.00,2013-05-05 01:13:00,
2013-05-04 21:18:00,76.0,67.1,29.72,WNW,292,0.0,2.0,74,0.00,,FEW050CU,0.00,0.00,VWS V14.00,2013-05-05 01:18:00,
2013-05-04 21:23:00,75.7,67.2,29.72,WNW,292,2.0,6.0,75,0.00,,FEW050CU,0.00,0.00,VWS V14.00,2013-05-05 01:23:00,
2013-05-04 21:28:00,75.5,67.0,29.72,WNW,294,5.0,5.0,75,0.00,,FEW050CU,0.00,0.00,VWS V14.00,2013-05-05 01:28:00,
2013-05-04 21:33:00,75.3,67.2,29.72,WNW,294,2.0,3.0,76,0.00,,FEW050CU,0.00,0.00,VWS V14.00,2013-05-05 01:33:00,
2013-05-04 21:38:00,75.2,67.1,29.73,WNW,294,4.0,5.0,76,0.00,,CLR,0.00,0.00,VWS V14.00,2013-05-05 01:38:00,
2013-05-04 21:43:00,75.0,66.9,29.73,WNW,288,2.0,7.0,76,0.00,,CLR,0.00,0.00,VWS V14.00,2013-05-05 01:43:00,
2013-05-04 21:48:00,74.8,66.7,29.73,WNW,288,4.0,5.0,76,0.00,,CLR,0.00,0.00,VWS V14.00,2013-05-05 01:48:00,
2013-05-04 21:54:00,74.7,67.0,29.73,WNW,286,7.0,7.0,77,0.00,,CLR,0.00,0.00,VWS V14.00,2013-05-05 01:54:00,
2013-05-04 21:59:00,74.5,66.8,29.73,WNW,286,4.0,6.0,77,0.00,,CLR,0.00,0.00,VWS V14.00,2013-05-05 01:59:00,
2013-05-04 22:04:00,74.3,66.6,29.74,WNW,288,4.0,6.0,77,0.00,,CLR,0.00,0.00,VWS V14.00,2013-05-05 02:04:00,
2013-05-04 22:09:00,74.2,66.5,29.74,West,281,0.0,6.0,77,0.00,,CLR,0.00,0.00,VWS V14.00,2013-05-05 02:09:00,
2013-05-04 22:14:00,74.0,66.7,29.74,WNW,287,5.0,7.0,78,0.00,,CLR,0.00,0.00,VWS V14.00,2013-05-05 02:14:00,
2013-05-04 22:19:00,73.9,66.6,29.74,WNW,286,2.0,5.0,78,0.00,,CLR,0.00,0.00,VWS V14.00,2013-05-05 02:19:00,
2013-05-04 22:24:00,73.7,66.4,29.74,WNW,288,3.0,4.0,78,0.00,,CLR,0.00,0.00,VWS V14.00,2013-05-05 02:24:00,
2013-05-04 22:29:00,73.5,66.6,29.75,WNW,288,5.0,5.0,79,0.00,,CLR,0.00,0.00,VWS V14.00,2013-05-05 02:29:00,
2013-05-04 22:34:00,73.3,66.4,29.75,WNW,289,6.0,8.0,79,0.00,,CLR,0.00,0.00,VWS V14.00,2013-05-05 02:34:00,
2013-05-04 22:39:00,73.1,66.2,29.75,WNW,291,4.0,7.0,79,0.00,,CLR,0.00,0.00,VWS V14.00,2013-05-05 02:39:00,
2013-05-04 22:44:00,73.0,66.1,29.75,WNW,294,5.0,6.0,79,0.00,,CLR,0.00,0.00,VWS V14.00,2013-05-05 02:44:00,
2013-05-04 22:49:00,72.9,66.0,29.75,WNW,283,3.0,6.0,79,0.00,,CLR,0.00,0.00,VWS V14.00,2013-05-05 02:49:00,
2013-05-04 22:54:00,72.8,66.3,29.75,WNW,284,4.0,5.0,80,0.00,,CLR,0.00,0.00,VWS V14.00,2013-05-05 02:54:00,
2013-05-04 22:59:00,72.7,66.2,29.75,WNW,285,4.0,9.0,80,0.00,,CLR,0.00,0.00,VWS V14.00,2013-05-05 02:59:00,
2013-05-04 23:04:00,72.7,65.8,29.76,West,277,7.0,10.0,79,0.00,,CLR,0.00,0.00,VWS V14.00,2013-05-05 03:04:00,
2013-05-04 23:09:00,72.6,66.1,29.76,West,278,0.0,7.0,80,0.00,,CLR,0.00,0.00,VWS V14.00,2013-05-05 03:09:00,
2013-05-04 23:14:00,72.5,66.0,29.76,WNW,283,4.0,5.0,80,0.00,,CLR,0.00,0.00,VWS V14.00,2013-05-05 03:14:00,
2013-05-04 23:19:00,72.4,66.2,29.76,WNW,284,0.0,4.0,81,0.00,,CLR,0.00,0.00,VWS V14.00,2013-05-05 03:19:00,
2013-05-04 23:24:00,72.2,66.1,29.76,WNW,284,7.0,7.0,81,0.00,,CLR,0.00,0.00,VWS V14.00,2013-05-05 03:24:00,
2013-05-04 23:29:00,72.1,65.9,29.75,WNW,300,6.0,10.0,81,0.00,,CLR,0.00,0.00,VWS V14.00,2013-05-05 03:29:00,
2013-05-04 23:34:00,71.9,66.1,29.76,WNW,292,2.0,10.0,82,0.00,,CLR,0.00,0.00,VWS V14.00,2013-05-05 03:34:00,
2013-05-04 23:39:00,71.8,66.0,29.76,WNW,293,1.0,4.0,82,0.00,,CLR,0.00,0.00,VWS V14.00,2013-05-05 03:39:00,
2013-05-04 23:44:00,71.7,65.9,29.76,WNW,295,6.0,7.0,82,0.00,,CLR,0.00,0.00,VWS V14.00,2013-05-05 03:44:00,
2013-05-04 23:49:00,71.6,66.2,29.77,WNW,294,4.0,6.0,83,0.00,,CLR,0.00,0.00,VWS V14.00,2013-05-05 03:49:00,
2013-05-04 23:54:00,71.5,66.1,29.77,WNW,292,6.0,6.0,83,0.00,,CLR,0.00,0.00,VWS V14.00,2013-05-05 03:54:00,
2013-05-04 23:59:00,71.4,66.0,29.77,WNW,294,4.0,7.0,83,0.00,,CLR,0.00,0.00,VWS V14.00,2013-05-05 03:59:00,